createdAt,value
2018-03-16T00:11:16.152Z,23.23
2018-03-16T00:13:43.816Z,25.90
2018-03-16T00:16:12.142Z,25.23
2018-03-16T00:18:39.652Z,25.95
2018-03-16T00:21:07.941Z,26.65
2018-03-16T00:23:35.477Z,27.23
2018-03-16T00:26:03.809Z,26.98
2018-03-16T00:45:35.065Z,26.70
2018-03-16T00:48:02.583Z,24.30
2018-03-16T00:50:30.261Z,26.75
2018-03-16T00:52:57.740Z,25.33
2018-03-16T00:55:25.294Z,26.95
2018-03-16T01:14:57.332Z,29.40
2018-03-16T01:17:25.595Z,29.02
2018-03-16T01:19:53.067Z,28.17
2018-03-16T01:22:21.377Z,29.60
2018-03-16T01:24:48.948Z,28.98
2018-03-16T01:27:16.433Z,28.50
2018-03-16T01:29:43.925Z,31.25
2018-03-16T01:32:11.489Z,32.70
2018-03-16T01:34:38.968Z,29.48
2018-03-16T01:37:06.551Z,29.05
2018-03-16T01:39:34.931Z,29.87
2018-03-16T01:59:07.279Z,28.85
2018-03-16T02:01:35.614Z,26.95
2018-03-16T02:04:03.139Z,31.23
2018-03-16T02:06:30.647Z,31.37
2018-03-16T02:08:58.297Z,32.38
2018-03-16T02:11:25.822Z,28.50
2018-03-16T02:13:54.121Z,29.17
2018-03-16T02:16:21.617Z,29.30
2018-03-16T02:18:49.102Z,31.55
2018-03-16T02:21:16.691Z,30.80
2018-03-16T02:23:44.194Z,30.62
2018-03-16T02:26:11.763Z,32.22
2018-03-16T02:28:40.154Z,29.23
2018-03-16T02:31:08.409Z,29.30
2018-03-16T02:33:35.930Z,31.85
2018-03-16T02:36:03.627Z,32.25
2018-03-16T02:38:31.133Z,32.20
2018-03-16T02:40:59.343Z,32.63
2018-03-16T03:00:31.332Z,33.50
2018-03-16T03:02:58.807Z,31.73
2018-03-16T03:05:27.119Z,35.05
2018-03-16T03:07:54.618Z,33.72
2018-03-16T03:10:22.153Z,31.17
2018-03-16T03:12:49.672Z,35.03
2018-03-16T03:15:18.066Z,32.92
2018-03-16T03:17:46.303Z,33.80
2018-03-16T03:20:13.865Z,35.45
2018-03-16T03:22:41.373Z,33.90
2018-03-16T03:25:08.890Z,31.55
2018-03-16T03:27:36.376Z,32.63
2018-03-16T03:30:03.860Z,32.08
2018-03-16T03:32:31.397Z,32.08
2018-03-16T03:34:58.945Z,33.80
2018-03-16T03:37:26.426Z,38.70
2018-03-16T03:39:54.890Z,33.92
2018-03-16T03:42:22.705Z,36.63
2018-03-16T04:01:54.358Z,34.63
2018-03-16T04:04:21.843Z,34.45
2018-03-16T04:06:49.333Z,32.00
2018-03-16T04:09:17.618Z,32.08
2018-03-16T04:11:45.857Z,35.83
2018-03-16T04:14:13.451Z,34.55
2018-03-16T04:16:41.711Z,34.10
2018-03-16T04:19:09.186Z,32.78
2018-03-16T04:21:37.750Z,33.92
2018-03-16T04:24:05.230Z,33.58
2018-03-16T04:43:38.087Z,36.00
2018-03-16T04:46:05.683Z,34.40
2018-03-16T04:48:33.933Z,37.10
2018-03-16T04:51:01.432Z,37.28
2018-03-16T04:53:28.956Z,36.10
2018-03-16T04:55:56.537Z,38.45
2018-03-16T04:58:24.791Z,38.42
2018-03-16T05:18:01.083Z,40.47
2018-03-16T05:20:28.733Z,36.90
2018-03-16T05:22:56.328Z,38.33
2018-03-16T05:25:23.850Z,41.97
2018-03-16T05:27:51.326Z,37.40
2018-03-16T05:30:19.597Z,40.08
2018-03-16T05:32:47.917Z,38.83
2018-03-16T05:35:15.458Z,40.95
2018-03-16T05:37:43.734Z,38.70
2018-03-16T05:40:12.185Z,38.90
2018-03-16T05:42:40.472Z,35.47
2018-03-16T05:45:07.997Z,39.95
2018-03-16T05:47:35.474Z,38.38
2018-03-16T05:50:03.311Z,39.35
2018-03-16T05:52:31.558Z,43.55
2018-03-16T05:54:59.036Z,38.75
2018-03-16T05:57:27.953Z,38.58
2018-03-16T05:59:55.472Z,37.65
2018-03-16T06:02:22.949Z,39.85
2018-03-16T06:04:50.462Z,39.60
2018-03-16T06:07:18.723Z,45.15
2018-03-16T06:09:46.181Z,44.10
2018-03-16T06:12:15.066Z,40.10
2018-03-16T06:14:42.524Z,40.58
2018-03-16T06:17:10.082Z,38.05
2018-03-16T06:19:37.564Z,39.40
2018-03-16T06:22:05.826Z,43.70
2018-03-16T06:27:27.644Z,41.70
2018-03-16T06:29:55.438Z,41.97
2018-03-16T06:32:22.893Z,40.20
2018-03-16T06:34:54.252Z,41.67
2018-03-16T06:37:22.513Z,37.67
2018-03-16T06:39:50.074Z,44.35
2018-03-16T06:42:17.553Z,44.08
2018-03-16T06:44:46.015Z,39.85
2018-03-16T06:47:13.342Z,38.78
2018-03-16T06:49:40.888Z,44.65
2018-03-16T06:52:24.321Z,39.38
2018-03-16T06:54:52.291Z,39.45
2018-03-16T06:57:19.774Z,42.83
2018-03-16T06:59:47.248Z,40.80
2018-03-16T07:02:14.806Z,39.83
2018-03-16T07:04:42.277Z,41.53
2018-03-16T07:07:09.761Z,41.15
2018-03-16T07:09:37.254Z,38.38
2018-03-16T07:12:04.925Z,45.78
2018-03-16T07:14:32.440Z,39.10
2018-03-16T07:22:47.000Z,44.45
2018-03-16T07:25:14.525Z,44.63
2018-03-16T07:27:42.503Z,41.35
2018-03-16T07:30:10.355Z,45.30
2018-03-16T07:32:38.943Z,43.20
2018-03-16T07:35:06.503Z,44.63
2018-03-16T07:38:00.003Z,42.78
2018-03-16T07:40:27.554Z,46.88
2018-03-16T07:43:00.970Z,49.03
2018-03-16T07:45:34.178Z,45.12
2018-03-16T07:48:02.568Z,45.78
2018-03-16T07:50:30.017Z,45.95
2018-03-16T07:52:58.558Z,45.83
2018-03-16T07:55:26.239Z,46.78
2018-03-16T07:57:53.716Z,43.58
2018-03-16T08:00:23.027Z,45.70
2018-03-16T08:02:58.462Z,43.03
2018-03-16T08:05:26.204Z,43.90
2018-03-16T08:07:53.671Z,43.65
2018-03-16T08:10:21.165Z,43.90
2018-03-16T08:12:48.740Z,40.78
2018-03-16T08:15:16.220Z,44.38
2018-03-16T08:17:43.663Z,37.85
2018-03-16T08:20:11.182Z,43.85
2018-03-16T08:22:39.517Z,46.13
2018-03-16T08:25:07.026Z,54.53
2018-03-16T08:27:34.486Z,46.08
2018-03-16T08:30:02.033Z,43.20
2018-03-16T08:32:30.245Z,44.10
2018-03-16T08:34:57.759Z,42.83
2018-03-16T08:37:25.218Z,40.72
2018-03-16T08:39:52.729Z,43.92
2018-03-16T08:42:22.879Z,43.25
2018-03-16T08:44:50.330Z,40.83
2018-03-16T08:47:17.777Z,43.60
2018-03-16T08:49:45.386Z,44.67
2018-03-16T08:52:12.853Z,49.67
2018-03-16T08:54:40.402Z,43.13
2018-03-16T08:57:08.620Z,43.65
2018-03-16T08:59:36.133Z,41.00
2018-03-16T09:02:04.349Z,41.15
2018-03-16T09:04:31.836Z,38.90
2018-03-16T09:06:59.310Z,39.90
2018-03-16T09:09:26.760Z,38.95
2018-03-16T09:11:54.216Z,43.90
2018-03-16T09:14:21.973Z,38.17
2018-03-16T09:16:49.456Z,40.00
2018-03-16T09:19:17.705Z,39.28
2018-03-16T09:21:45.236Z,37.45
2018-03-16T09:24:12.765Z,35.50
2018-03-16T09:26:40.574Z,40.60
2018-03-16T09:29:08.062Z,35.40
2018-03-16T09:31:35.535Z,32.92
2018-03-16T09:34:03.072Z,38.30
2018-03-16T09:36:30.563Z,38.55
2018-03-16T09:38:58.013Z,36.80
2018-03-16T09:41:26.248Z,32.78
2018-03-16T09:43:53.711Z,33.47
2018-03-16T09:46:25.258Z,31.80
2018-03-16T09:48:52.742Z,33.00
2018-03-16T09:51:20.199Z,32.75
2018-03-16T09:53:47.763Z,32.33
2018-03-16T09:56:15.289Z,29.12
2018-03-16T09:58:42.775Z,31.27
2018-03-16T10:01:10.205Z,31.85
2018-03-16T10:03:37.805Z,29.70
2018-03-16T10:06:06.057Z,32.85
2018-03-16T10:08:33.526Z,30.70
2018-03-16T10:11:01.101Z,28.10
2018-03-16T10:13:28.548Z,30.75
2018-03-16T10:15:56.022Z,32.72
2018-03-16T10:18:24.292Z,32.35
2018-03-16T10:20:52.560Z,32.53
2018-03-16T10:23:20.097Z,31.05
2018-03-16T10:25:47.577Z,32.15
2018-03-16T10:28:15.046Z,34.13
2018-03-16T10:30:43.295Z,35.72
2018-03-16T10:33:10.728Z,34.35
2018-03-16T10:35:38.357Z,28.70
2018-03-16T10:38:05.820Z,31.55
2018-03-16T10:40:33.283Z,31.02
2018-03-16T10:43:00.777Z,31.15
2018-03-16T10:45:28.262Z,32.55
2018-03-16T10:47:55.733Z,30.05
2018-03-16T10:50:24.081Z,33.30
2018-03-16T10:52:51.622Z,31.70
2018-03-16T10:55:19.090Z,29.95
2018-03-16T10:57:46.561Z,33.20
2018-03-16T11:00:25.978Z,32.40
2018-03-16T11:02:53.455Z,30.35
2018-03-16T11:05:34.902Z,32.88
2018-03-16T11:08:04.374Z,31.73
2018-03-16T11:10:32.652Z,28.33
2018-03-16T11:13:00.882Z,28.50
2018-03-16T11:15:28.422Z,27.48
2018-03-16T11:17:56.030Z,30.25
2018-03-16T11:20:23.481Z,29.80
2018-03-16T11:22:50.957Z,30.35
2018-03-16T11:25:18.423Z,29.90
2018-03-16T11:27:46.653Z,33.33
2018-03-16T11:30:14.217Z,31.08
2018-03-16T11:32:41.625Z,28.55
2018-03-16T11:35:09.109Z,29.85
2018-03-16T11:37:41.535Z,28.27
2018-03-16T11:40:09.022Z,30.92
2018-03-16T11:42:36.478Z,32.00
2018-03-16T11:45:03.977Z,29.20
2018-03-16T11:47:31.447Z,32.70
2018-03-16T11:50:04.135Z,29.77
2018-03-16T11:52:31.630Z,34.28
2018-03-16T11:54:59.315Z,34.78
2018-03-16T11:57:26.797Z,31.75
2018-03-16T11:59:54.316Z,32.70
2018-03-16T12:02:21.790Z,31.00
2018-03-16T12:04:49.326Z,35.53
2018-03-16T12:07:17.218Z,32.03
2018-03-16T12:09:44.751Z,29.30
2018-03-16T12:12:12.235Z,30.30
2018-03-16T12:14:39.785Z,28.12
2018-03-16T12:17:07.253Z,30.30
2018-03-16T12:19:34.745Z,28.62
2018-03-16T12:22:02.281Z,32.00
2018-03-16T12:24:29.760Z,31.75
2018-03-16T12:26:57.249Z,31.50
2018-03-16T12:29:25.906Z,34.75
2018-03-16T12:31:53.402Z,35.45
2018-03-16T12:34:21.623Z,37.90
2018-03-16T12:36:49.150Z,34.70
2018-03-16T12:39:16.606Z,36.92
2018-03-16T12:41:44.115Z,31.15
2018-03-16T12:44:11.607Z,34.75
2018-03-16T12:46:39.853Z,33.25
2018-03-16T12:49:07.397Z,34.75
2018-03-16T12:51:42.079Z,36.72
2018-03-16T12:54:02.349Z,41.47
2018-03-16T12:56:34.471Z,33.75
2018-03-16T12:59:01.968Z,31.92
2018-03-16T13:01:35.382Z,35.42
2018-03-16T13:04:02.920Z,33.78
2018-03-16T13:06:30.400Z,29.60
2018-03-16T13:08:58.793Z,29.85
2018-03-16T13:11:26.277Z,36.05
2018-03-16T13:13:53.813Z,38.10
2018-03-16T13:16:21.325Z,34.78
2018-03-16T13:18:48.896Z,33.55
2018-03-16T13:21:17.293Z,33.17
2018-03-16T13:23:44.764Z,30.92
2018-03-16T13:26:12.377Z,34.40
2018-03-16T13:28:39.896Z,30.73
2018-03-16T13:31:07.374Z,34.22
2018-03-16T13:33:34.928Z,29.50
2018-03-16T13:36:02.694Z,33.15
2018-03-16T13:38:30.200Z,33.40
2018-03-16T13:40:57.819Z,29.80
2018-03-16T13:43:26.172Z,34.08
2018-03-16T13:45:53.682Z,33.85
2018-03-16T13:48:21.203Z,32.03
2018-03-16T13:50:48.681Z,31.45
2018-03-16T13:53:16.161Z,30.35
2018-03-16T13:55:43.744Z,35.53
2018-03-16T13:58:12.549Z,36.30
2018-03-16T14:00:40.291Z,37.10
2018-03-16T14:20:13.495Z,31.17
2018-03-16T14:22:40.969Z,31.05
2018-03-16T14:25:09.237Z,30.77
2018-03-16T14:27:37.522Z,29.30
2018-03-16T14:30:05.867Z,30.35
2018-03-16T14:32:33.488Z,28.15
2018-03-16T14:52:06.415Z,29.42
2018-03-16T14:54:33.960Z,31.58
2018-03-16T15:14:05.342Z,28.15
2018-03-16T15:16:32.852Z,30.83
2018-03-16T15:19:00.404Z,30.52
2018-03-16T15:21:28.026Z,31.65
2018-03-16T15:23:55.516Z,30.52
2018-03-16T15:26:23.056Z,32.20
2018-03-16T15:28:50.582Z,30.55
2018-03-16T15:31:18.102Z,35.28
2018-03-16T15:33:46.421Z,29.05
2018-03-16T15:36:13.917Z,26.80
2018-03-16T15:38:41.659Z,29.83
2018-03-16T15:41:09.207Z,29.17
2018-03-16T15:43:36.726Z,25.42
2018-03-16T15:46:04.314Z,24.20
2018-03-16T15:48:31.798Z,25.37
2018-03-16T15:50:59.452Z,27.25
2018-03-16T15:53:26.945Z,28.27
2018-03-16T15:55:55.286Z,27.80
2018-03-16T15:58:23.692Z,25.55
2018-03-16T16:00:51.248Z,24.05
2018-03-16T16:20:23.993Z,19.87
2018-03-16T16:22:52.405Z,19.25
2018-03-16T16:25:19.950Z,19.27
2018-03-16T16:27:47.477Z,23.52
2018-03-16T16:47:20.684Z,12.48
2018-03-16T16:49:49.133Z,14.13
2018-03-16T17:03:39.872Z,13.93
2018-03-16T17:06:07.485Z,10.80
2018-03-16T17:08:34.962Z,10.75
2018-03-16T17:11:03.413Z,15.45
2018-03-16T17:19:21.002Z,10.05
2018-03-16T17:21:49.558Z,8.80
2018-03-16T17:24:18.884Z,9.40
2018-03-16T17:26:47.275Z,10.80
2018-03-16T17:29:14.806Z,9.15
2018-03-16T17:31:42.299Z,10.15
2018-03-16T17:34:09.938Z,10.05
2018-03-16T17:36:38.230Z,9.63
2018-03-16T17:39:06.478Z,23.62
2018-03-16T17:41:33.977Z,10.15
2018-03-16T17:47:11.188Z,10.73
2018-03-16T17:49:39.800Z,11.12
2018-03-16T17:52:08.049Z,13.23
2018-03-16T17:54:35.945Z,10.48
2018-03-16T17:57:03.433Z,12.65
2018-03-16T17:59:30.962Z,13.20
2018-03-16T18:01:58.485Z,12.15
2018-03-16T18:04:25.954Z,15.00
2018-03-16T18:21:24.767Z,17.52
2018-03-16T18:23:52.238Z,15.15
2018-03-16T18:26:20.304Z,12.80
2018-03-16T18:28:48.336Z,13.55
2018-03-16T18:31:16.599Z,17.40
2018-03-16T18:33:44.249Z,12.43
2018-03-16T18:36:11.793Z,14.48
2018-03-16T18:44:20.977Z,16.45
2018-03-16T18:46:48.451Z,16.90
2018-03-16T18:49:16.659Z,15.98
2018-03-16T18:51:44.209Z,17.00
2018-03-16T18:54:16.592Z,16.40
2018-03-16T18:56:44.033Z,15.23
2018-03-16T18:59:11.562Z,16.70
2018-03-16T19:01:39.041Z,18.27
2018-03-16T19:04:07.253Z,17.42
2018-03-16T19:06:34.805Z,14.45
2018-03-16T19:09:10.708Z,20.17
2018-03-16T19:11:38.159Z,16.33
2018-03-16T19:14:06.024Z,16.05
2018-03-16T19:16:33.477Z,15.15
2018-03-16T19:19:00.941Z,16.25
2018-03-16T19:21:28.569Z,15.20
2018-03-16T19:23:56.793Z,18.27
2018-03-16T19:26:25.029Z,17.83
2018-03-16T19:28:58.737Z,18.83
2018-03-16T19:31:26.213Z,17.75
2018-03-16T19:33:53.694Z,17.85
2018-03-16T19:36:22.020Z,19.35
2018-03-16T19:38:49.562Z,19.02
2018-03-16T19:41:17.052Z,21.30
2018-03-16T19:43:44.541Z,16.55
2018-03-16T19:52:11.074Z,16.37
2018-03-16T19:54:38.590Z,16.20
2018-03-16T19:57:07.006Z,16.40
2018-03-16T20:02:25.981Z,15.43
2018-03-16T20:04:53.586Z,22.85
2018-03-16T20:07:21.188Z,17.12
2018-03-16T20:09:48.685Z,16.90
2018-03-16T20:12:16.146Z,14.98
2018-03-16T20:14:44.048Z,16.15
2018-03-16T20:17:11.609Z,15.00
2018-03-16T20:19:39.030Z,13.90
2018-03-16T20:22:06.595Z,14.95
2018-03-16T20:24:34.078Z,15.10
2018-03-16T20:27:02.388Z,14.65
2018-03-16T20:29:30.234Z,14.30
2018-03-16T20:31:58.454Z,14.80
2018-03-16T20:34:25.918Z,14.38
2018-03-16T20:36:53.705Z,16.90
2018-03-16T20:39:21.134Z,16.52
2018-03-16T20:41:48.602Z,14.60
2018-03-16T20:44:16.227Z,17.95
2018-03-16T20:46:43.955Z,16.33
2018-03-16T20:49:11.493Z,17.03
2018-03-16T20:51:38.965Z,15.13
2018-03-16T20:54:06.447Z,16.27
2018-03-16T20:56:34.712Z,15.27
2018-03-16T20:59:02.228Z,17.98
2018-03-16T21:01:29.681Z,15.48
2018-03-16T21:03:57.308Z,16.80
2018-03-16T21:06:25.527Z,16.42
2018-03-16T21:08:53.002Z,15.05
2018-03-16T21:11:20.481Z,18.33
2018-03-16T21:13:48.717Z,19.67
2018-03-16T21:16:16.505Z,18.20
2018-03-16T21:18:43.981Z,17.98
2018-03-16T21:21:12.219Z,19.52
2018-03-16T21:23:40.107Z,16.50
2018-03-16T21:26:07.562Z,20.15
2018-03-16T21:28:35.022Z,18.30
2018-03-16T21:31:02.553Z,17.77
2018-03-16T21:33:30.054Z,17.60
2018-03-16T21:35:57.509Z,18.05
2018-03-16T21:38:25.053Z,16.80
2018-03-16T21:40:52.517Z,17.83
2018-03-16T21:43:29.009Z,19.00
2018-03-16T21:45:57.266Z,16.42
2018-03-16T21:48:24.757Z,17.87
2018-03-16T21:50:52.226Z,18.42
2018-03-16T21:53:19.746Z,20.25
2018-03-16T21:55:47.370Z,18.75
2018-03-16T21:58:14.840Z,16.90
2018-03-16T22:00:42.450Z,17.60
2018-03-16T22:03:10.672Z,18.52
2018-03-16T22:05:50.961Z,19.45
2018-03-16T22:08:18.487Z,18.08
2018-03-16T22:10:46.004Z,18.27
2018-03-16T22:13:14.235Z,19.62
2018-03-16T22:15:41.933Z,20.48
2018-03-16T22:18:10.195Z,17.87
2018-03-16T22:20:37.675Z,16.52
2018-03-16T22:23:06.639Z,21.05
2018-03-16T22:25:34.166Z,18.48
2018-03-16T22:28:01.974Z,19.00
2018-03-16T22:30:42.185Z,20.23
2018-03-16T22:33:10.510Z,18.90
2018-03-16T22:35:38.782Z,18.65
2018-03-16T22:38:06.261Z,17.73
2018-03-16T22:40:33.758Z,18.12
2018-03-16T22:45:53.395Z,18.15
2018-03-16T22:48:21.113Z,21.45
2018-03-16T22:53:40.550Z,19.58
2018-03-16T23:01:47.890Z,20.15
2018-03-16T23:04:16.191Z,16.42
2018-03-16T23:06:43.605Z,18.85
2018-03-16T23:09:11.082Z,19.45
2018-03-16T23:11:39.396Z,18.87
2018-03-16T23:14:06.867Z,18.83
2018-03-16T23:16:34.382Z,19.50
2018-03-16T23:19:02.640Z,20.00
2018-03-16T23:21:30.898Z,16.52
2018-03-16T23:27:11.611Z,18.75
2018-03-16T23:29:39.856Z,18.95
2018-03-16T23:32:07.386Z,20.75
2018-03-16T23:34:34.859Z,18.80
2018-03-16T23:37:02.585Z,19.40
2018-03-16T23:39:34.057Z,19.77
2018-03-16T23:42:02.426Z,20.75
2018-03-16T23:44:29.898Z,20.30
2018-03-16T23:46:57.432Z,20.55
2018-03-16T23:49:24.944Z,20.65
2018-03-16T23:51:52.437Z,21.10
2018-03-16T23:54:20.674Z,22.73
2018-03-16T23:56:48.467Z,21.85
2018-03-16T23:59:16.018Z,21.85
